sensor_id;sensor_type;location;lat;lon;timestamp;P1;durP1;ratioP1;P2;durP2;ratioP2
69305;SDS011;56427;51.580;4.656;2023-08-21T00:01:51;6.07;;;1.80;;
69305;SDS011;56427;51.580;4.656;2023-08-21T00:04:17;5.78;;;1.83;;
69305;SDS011;56427;51.580;4.656;2023-08-21T00:06:42;5.93;;;1.60;;
69305;SDS011;56427;51.580;4.656;2023-08-21T00:09:11;7.10;;;1.83;;
69305;SDS011;56427;51.580;4.656;2023-08-21T00:11:36;7.32;;;1.58;;
69305;SDS011;56427;51.580;4.656;2023-08-21T00:14:02;7.83;;;2.10;;
69305;SDS011;56427;51.580;4.656;2023-08-21T00:16:27;7.97;;;1.70;;
69305;SDS011;56427;51.580;4.656;2023-08-21T00:18:53;7.43;;;1.80;;
69305;SDS011;56427;51.580;4.656;2023-08-21T00:21:19;7.03;;;1.77;;
69305;SDS011;56427;51.580;4.656;2023-08-21T00:23:45;10.57;;;2.00;;
69305;SDS011;56427;51.580;4.656;2023-08-21T00:26:11;6.97;;;1.87;;
69305;SDS011;56427;51.580;4.656;2023-08-21T00:28:36;10.15;;;2.17;;
69305;SDS011;56427;51.580;4.656;2023-08-21T00:31:02;5.57;;;1.77;;
69305;SDS011;56427;51.580;4.656;2023-08-21T00:33:29;5.30;;;1.52;;
69305;SDS011;56427;51.580;4.656;2023-08-21T00:35:55;7.85;;;1.70;;
69305;SDS011;56427;51.580;4.656;2023-08-21T00:38:21;11.23;;;2.07;;
69305;SDS011;56427;51.580;4.656;2023-08-21T00:40:46;5.83;;;1.80;;
69305;SDS011;56427;51.580;4.656;2023-08-21T00:43:12;8.27;;;2.13;;
69305;SDS011;56427;51.580;4.656;2023-08-21T00:45:37;6.17;;;1.63;;
69305;SDS011;56427;51.580;4.656;2023-08-21T00:48:06;6.88;;;1.77;;
69305;SDS011;56427;51.580;4.656;2023-08-21T00:50:32;7.70;;;1.85;;
69305;SDS011;56427;51.580;4.656;2023-08-21T00:52:58;5.53;;;1.87;;
69305;SDS011;56427;51.580;4.656;2023-08-21T00:55:23;6.20;;;1.70;;
69305;SDS011;56427;51.580;4.656;2023-08-21T00:57:49;8.70;;;2.03;;
69305;SDS011;56427;51.580;4.656;2023-08-21T01:00:14;10.07;;;2.30;;
69305;SDS011;56427;51.580;4.656;2023-08-21T01:02:40;5.80;;;2.10;;
69305;SDS011;56427;51.580;4.656;2023-08-21T01:05:05;6.27;;;1.90;;
69305;SDS011;56427;51.580;4.656;2023-08-21T01:07:36;9.82;;;2.30;;
69305;SDS011;56427;51.580;4.656;2023-08-21T01:10:17;10.35;;;2.05;;
69305;SDS011;56427;51.580;4.656;2023-08-21T01:15:21;8.87;;;2.10;;
69305;SDS011;56427;51.580;4.656;2023-08-21T01:17:47;7.97;;;2.45;;
69305;SDS011;56427;51.580;4.656;2023-08-21T01:20:14;9.48;;;2.20;;
69305;SDS011;56427;51.580;4.656;2023-08-21T01:22:40;5.23;;;1.87;;
69305;SDS011;56427;51.580;4.656;2023-08-21T01:25:11;7.95;;;1.98;;
69305;SDS011;56427;51.580;4.656;2023-08-21T01:27:41;6.25;;;1.75;;
69305;SDS011;56427;51.580;4.656;2023-08-21T01:30:08;8.10;;;2.25;;
69305;SDS011;56427;51.580;4.656;2023-08-21T01:32:55;6.10;;;1.90;;
69305;SDS011;56427;51.580;4.656;2023-08-21T01:35:35;10.07;;;2.00;;
69305;SDS011;56427;51.580;4.656;2023-08-21T01:38:02;6.93;;;2.00;;
69305;SDS011;56427;51.580;4.656;2023-08-21T01:40:28;7.10;;;1.80;;
69305;SDS011;56427;51.580;4.656;2023-08-21T01:42:54;5.88;;;2.03;;
69305;SDS011;56427;51.580;4.656;2023-08-21T01:45:20;7.30;;;1.90;;
69305;SDS011;56427;51.580;4.656;2023-08-21T01:47:46;10.05;;;1.92;;
69305;SDS011;56427;51.580;4.656;2023-08-21T01:50:12;7.33;;;2.10;;
69305;SDS011;56427;51.580;4.656;2023-08-21T01:52:37;7.05;;;1.98;;
69305;SDS011;56427;51.580;4.656;2023-08-21T01:55:23;11.53;;;2.90;;
69305;SDS011;56427;51.580;4.656;2023-08-21T01:57:48;9.30;;;2.67;;
69305;SDS011;56427;51.580;4.656;2023-08-21T02:00:13;7.43;;;2.63;;
69305;SDS011;56427;51.580;4.656;2023-08-21T02:02:39;9.67;;;2.60;;
69305;SDS011;56427;51.580;4.656;2023-08-21T02:05:05;6.07;;;2.87;;
69305;SDS011;56427;51.580;4.656;2023-08-21T02:07:30;12.30;;;3.05;;
69305;SDS011;56427;51.580;4.656;2023-08-21T02:09:56;10.17;;;3.50;;
69305;SDS011;56427;51.580;4.656;2023-08-21T02:12:21;8.77;;;3.23;;
69305;SDS011;56427;51.580;4.656;2023-08-21T02:14:46;8.60;;;3.07;;
69305;SDS011;56427;51.580;4.656;2023-08-21T02:17:12;8.57;;;3.22;;
69305;SDS011;56427;51.580;4.656;2023-08-21T02:19:37;9.87;;;3.30;;
69305;SDS011;56427;51.580;4.656;2023-08-21T02:22:03;10.13;;;3.73;;
69305;SDS011;56427;51.580;4.656;2023-08-21T02:24:28;8.40;;;3.47;;
69305;SDS011;56427;51.580;4.656;2023-08-21T02:26:53;12.70;;;3.93;;
69305;SDS011;56427;51.580;4.656;2023-08-21T02:29:19;8.30;;;3.77;;
69305;SDS011;56427;51.580;4.656;2023-08-21T02:31:44;9.37;;;3.70;;
69305;SDS011;56427;51.580;4.656;2023-08-21T02:34:09;8.70;;;3.60;;
69305;SDS011;56427;51.580;4.656;2023-08-21T02:36:35;7.80;;;3.70;;
69305;SDS011;56427;51.580;4.656;2023-08-21T02:39:00;11.57;;;4.17;;
69305;SDS011;56427;51.580;4.656;2023-08-21T02:41:25;7.90;;;4.00;;
69305;SDS011;56427;51.580;4.656;2023-08-21T02:43:51;8.93;;;4.50;;
69305;SDS011;56427;51.580;4.656;2023-08-21T02:46:16;6.32;;;3.80;;
69305;SDS011;56427;51.580;4.656;2023-08-21T02:48:42;9.23;;;3.67;;
69305;SDS011;56427;51.580;4.656;2023-08-21T02:51:08;9.90;;;4.47;;
69305;SDS011;56427;51.580;4.656;2023-08-21T02:53:33;11.37;;;4.47;;
69305;SDS011;56427;51.580;4.656;2023-08-21T02:55:58;10.30;;;4.13;;
69305;SDS011;56427;51.580;4.656;2023-08-21T02:58:24;9.17;;;4.20;;
69305;SDS011;56427;51.580;4.656;2023-08-21T03:00:49;14.23;;;4.27;;
69305;SDS011;56427;51.580;4.656;2023-08-21T03:03:14;11.80;;;4.20;;
69305;SDS011;56427;51.580;4.656;2023-08-21T03:05:40;13.30;;;4.32;;
69305;SDS011;56427;51.580;4.656;2023-08-21T03:08:05;8.37;;;3.87;;
69305;SDS011;56427;51.580;4.656;2023-08-21T03:10:30;11.47;;;4.17;;
69305;SDS011;56427;51.580;4.656;2023-08-21T03:12:58;11.70;;;4.10;;
69305;SDS011;56427;51.580;4.656;2023-08-21T03:15:24;12.30;;;4.63;;
69305;SDS011;56427;51.580;4.656;2023-08-21T03:17:49;10.30;;;3.87;;
69305;SDS011;56427;51.580;4.656;2023-08-21T03:20:15;10.32;;;4.13;;
69305;SDS011;56427;51.580;4.656;2023-08-21T03:22:42;9.00;;;4.47;;
69305;SDS011;56427;51.580;4.656;2023-08-21T03:25:10;10.63;;;4.38;;
69305;SDS011;56427;51.580;4.656;2023-08-21T03:27:35;9.87;;;4.10;;
69305;SDS011;56427;51.580;4.656;2023-08-21T03:30:05;8.40;;;4.10;;
69305;SDS011;56427;51.580;4.656;2023-08-21T03:32:31;10.38;;;4.47;;
69305;SDS011;56427;51.580;4.656;2023-08-21T03:34:57;9.02;;;4.43;;
69305;SDS011;56427;51.580;4.656;2023-08-21T03:37:22;13.50;;;4.57;;
69305;SDS011;56427;51.580;4.656;2023-08-21T03:39:48;12.60;;;4.00;;
69305;SDS011;56427;51.580;4.656;2023-08-21T03:42:13;10.80;;;4.38;;
69305;SDS011;56427;51.580;4.656;2023-08-21T03:44:39;10.30;;;4.03;;
69305;SDS011;56427;51.580;4.656;2023-08-21T03:47:06;7.40;;;3.40;;
69305;SDS011;56427;51.580;4.656;2023-08-21T03:49:31;10.10;;;3.60;;
69305;SDS011;56427;51.580;4.656;2023-08-21T03:51:56;11.33;;;4.40;;
69305;SDS011;56427;51.580;4.656;2023-08-21T03:54:22;7.17;;;3.50;;
69305;SDS011;56427;51.580;4.656;2023-08-21T03:56:47;10.07;;;4.37;;
69305;SDS011;56427;51.580;4.656;2023-08-21T03:59:12;9.93;;;3.57;;
69305;SDS011;56427;51.580;4.656;2023-08-21T04:01:38;10.93;;;4.10;;
69305;SDS011;56427;51.580;4.656;2023-08-21T04:04:03;12.57;;;3.77;;
69305;SDS011;56427;51.580;4.656;2023-08-21T04:06:28;9.87;;;3.80;;
69305;SDS011;56427;51.580;4.656;2023-08-21T04:08:54;10.50;;;3.70;;
69305;SDS011;56427;51.580;4.656;2023-08-21T04:11:22;9.97;;;4.10;;
69305;SDS011;56427;51.580;4.656;2023-08-21T04:13:47;9.07;;;3.92;;
69305;SDS011;56427;51.580;4.656;2023-08-21T04:16:13;9.97;;;3.87;;
69305;SDS011;56427;51.580;4.656;2023-08-21T04:18:42;10.27;;;4.00;;
69305;SDS011;56427;51.580;4.656;2023-08-21T04:21:08;9.20;;;3.40;;
69305;SDS011;56427;51.580;4.656;2023-08-21T04:23:34;8.07;;;3.90;;
69305;SDS011;56427;51.580;4.656;2023-08-21T04:26:00;12.77;;;4.18;;
69305;SDS011;56427;51.580;4.656;2023-08-21T04:28:27;14.13;;;3.75;;
69305;SDS011;56427;51.580;4.656;2023-08-21T04:30:52;13.93;;;3.60;;
69305;SDS011;56427;51.580;4.656;2023-08-21T04:33:18;10.13;;;4.00;;
69305;SDS011;56427;51.580;4.656;2023-08-21T04:35:43;11.40;;;3.97;;
69305;SDS011;56427;51.580;4.656;2023-08-21T04:38:08;7.77;;;3.53;;
69305;SDS011;56427;51.580;4.656;2023-08-21T04:40:33;8.77;;;3.80;;
69305;SDS011;56427;51.580;4.656;2023-08-21T04:42:59;9.93;;;3.80;;
69305;SDS011;56427;51.580;4.656;2023-08-21T04:45:24;10.32;;;3.75;;
69305;SDS011;56427;51.580;4.656;2023-08-21T04:47:49;10.03;;;3.30;;
69305;SDS011;56427;51.580;4.656;2023-08-21T04:50:15;8.83;;;4.00;;
69305;SDS011;56427;51.580;4.656;2023-08-21T04:52:40;10.37;;;3.37;;
69305;SDS011;56427;51.580;4.656;2023-08-21T04:55:06;8.83;;;3.50;;
69305;SDS011;56427;51.580;4.656;2023-08-21T04:57:32;8.98;;;3.30;;
69305;SDS011;56427;51.580;4.656;2023-08-21T04:59:57;7.33;;;3.50;;
69305;SDS011;56427;51.580;4.656;2023-08-21T05:02:23;8.65;;;3.80;;
69305;SDS011;56427;51.580;4.656;2023-08-21T05:04:48;10.20;;;4.03;;
69305;SDS011;56427;51.580;4.656;2023-08-21T05:07:13;9.30;;;4.23;;
69305;SDS011;56427;51.580;4.656;2023-08-21T05:09:39;9.77;;;4.07;;
69305;SDS011;56427;51.580;4.656;2023-08-21T05:12:05;12.30;;;4.03;;
69305;SDS011;56427;51.580;4.656;2023-08-21T05:14:30;9.55;;;3.70;;
69305;SDS011;56427;51.580;4.656;2023-08-21T05:16:56;9.37;;;4.00;;
69305;SDS011;56427;51.580;4.656;2023-08-21T05:19:21;11.83;;;3.73;;
69305;SDS011;56427;51.580;4.656;2023-08-21T05:21:46;12.45;;;4.03;;
69305;SDS011;56427;51.580;4.656;2023-08-21T05:24:12;14.67;;;3.90;;
69305;SDS011;56427;51.580;4.656;2023-08-21T05:26:37;13.97;;;4.53;;
69305;SDS011;56427;51.580;4.656;2023-08-21T05:29:03;14.80;;;4.05;;
69305;SDS011;56427;51.580;4.656;2023-08-21T05:31:29;11.30;;;3.97;;
69305;SDS011;56427;51.580;4.656;2023-08-21T05:33:54;14.60;;;4.10;;
69305;SDS011;56427;51.580;4.656;2023-08-21T05:36:20;11.57;;;4.13;;
69305;SDS011;56427;51.580;4.656;2023-08-21T05:38:45;11.43;;;4.00;;
69305;SDS011;56427;51.580;4.656;2023-08-21T05:41:13;11.15;;;3.63;;
69305;SDS011;56427;51.580;4.656;2023-08-21T05:43:38;9.17;;;4.03;;
69305;SDS011;56427;51.580;4.656;2023-08-21T05:46:05;10.68;;;3.83;;
69305;SDS011;56427;51.580;4.656;2023-08-21T05:48:31;13.45;;;3.67;;
69305;SDS011;56427;51.580;4.656;2023-08-21T05:50:56;10.13;;;3.77;;
69305;SDS011;56427;51.580;4.656;2023-08-21T05:53:22;9.03;;;3.50;;
69305;SDS011;56427;51.580;4.656;2023-08-21T05:55:47;15.25;;;4.60;;
69305;SDS011;56427;51.580;4.656;2023-08-21T05:58:13;8.43;;;3.60;;
69305;SDS011;56427;51.580;4.656;2023-08-21T06:00:38;10.00;;;3.70;;
69305;SDS011;56427;51.580;4.656;2023-08-21T06:03:04;11.68;;;3.60;;
69305;SDS011;56427;51.580;4.656;2023-08-21T06:05:29;12.23;;;3.80;;
69305;SDS011;56427;51.580;4.656;2023-08-21T06:07:55;13.30;;;3.92;;
69305;SDS011;56427;51.580;4.656;2023-08-21T06:10:21;11.40;;;4.07;;
69305;SDS011;56427;51.580;4.656;2023-08-21T06:12:46;10.40;;;3.60;;
69305;SDS011;56427;51.580;4.656;2023-08-21T06:15:13;11.68;;;3.70;;
69305;SDS011;56427;51.580;4.656;2023-08-21T06:17:38;13.20;;;3.90;;
69305;SDS011;56427;51.580;4.656;2023-08-21T06:20:04;9.23;;;2.87;;
69305;SDS011;56427;51.580;4.656;2023-08-21T06:22:34;8.70;;;2.80;;
69305;SDS011;56427;51.580;4.656;2023-08-21T06:25:00;8.25;;;2.70;;
69305;SDS011;56427;51.580;4.656;2023-08-21T06:27:25;9.00;;;2.50;;
69305;SDS011;56427;51.580;4.656;2023-08-21T06:29:50;12.77;;;3.13;;
69305;SDS011;56427;51.580;4.656;2023-08-21T06:32:16;10.23;;;2.87;;
69305;SDS011;56427;51.580;4.656;2023-08-21T06:34:41;10.40;;;2.70;;
69305;SDS011;56427;51.580;4.656;2023-08-21T06:37:06;7.97;;;2.20;;
69305;SDS011;56427;51.580;4.656;2023-08-21T06:39:32;7.63;;;2.23;;
69305;SDS011;56427;51.580;4.656;2023-08-21T06:41:59;9.82;;;2.90;;
69305;SDS011;56427;51.580;4.656;2023-08-21T06:44:25;10.05;;;2.42;;
69305;SDS011;56427;51.580;4.656;2023-08-21T06:46:51;10.23;;;2.23;;
69305;SDS011;56427;51.580;4.656;2023-08-21T06:49:16;8.27;;;2.47;;
69305;SDS011;56427;51.580;4.656;2023-08-21T06:51:41;8.40;;;2.20;;
69305;SDS011;56427;51.580;4.656;2023-08-21T06:54:07;12.30;;;3.33;;
69305;SDS011;56427;51.580;4.656;2023-08-21T06:56:32;10.33;;;2.43;;
69305;SDS011;56427;51.580;4.656;2023-08-21T06:58:57;6.33;;;2.20;;
69305;SDS011;56427;51.580;4.656;2023-08-21T07:01:23;9.33;;;2.23;;
69305;SDS011;56427;51.580;4.656;2023-08-21T07:03:48;7.80;;;2.45;;
69305;SDS011;56427;51.580;4.656;2023-08-21T07:06:14;9.23;;;2.23;;
69305;SDS011;56427;51.580;4.656;2023-08-21T07:08:39;9.57;;;2.73;;
69305;SDS011;56427;51.580;4.656;2023-08-21T07:11:06;8.05;;;2.38;;
69305;SDS011;56427;51.580;4.656;2023-08-21T07:13:35;8.98;;;2.53;;
69305;SDS011;56427;51.580;4.656;2023-08-21T07:16:01;13.32;;;3.30;;
69305;SDS011;56427;51.580;4.656;2023-08-21T07:18:28;8.53;;;2.30;;
69305;SDS011;56427;51.580;4.656;2023-08-21T07:20:54;9.40;;;2.45;;
69305;SDS011;56427;51.580;4.656;2023-08-21T07:23:20;11.50;;;2.40;;
69305;SDS011;56427;51.580;4.656;2023-08-21T07:25:46;8.50;;;2.38;;
69305;SDS011;56427;51.580;4.656;2023-08-21T07:28:11;7.13;;;2.20;;
69305;SDS011;56427;51.580;4.656;2023-08-21T07:30:37;8.50;;;2.50;;
69305;SDS011;56427;51.580;4.656;2023-08-21T07:33:06;8.18;;;2.30;;
69305;SDS011;56427;51.580;4.656;2023-08-21T07:35:32;11.17;;;2.80;;
69305;SDS011;56427;51.580;4.656;2023-08-21T07:37:57;9.48;;;2.80;;
69305;SDS011;56427;51.580;4.656;2023-08-21T07:40:23;7.23;;;2.93;;
69305;SDS011;56427;51.580;4.656;2023-08-21T07:42:48;9.75;;;3.20;;
69305;SDS011;56427;51.580;4.656;2023-08-21T07:45:14;13.07;;;3.40;;
69305;SDS011;56427;51.580;4.656;2023-08-21T07:47:39;15.23;;;3.53;;
69305;SDS011;56427;51.580;4.656;2023-08-21T07:50:08;13.68;;;3.53;;
69305;SDS011;56427;51.580;4.656;2023-08-21T07:52:34;14.90;;;3.57;;
69305;SDS011;56427;51.580;4.656;2023-08-21T07:55:00;10.52;;;3.40;;
69305;SDS011;56427;51.580;4.656;2023-08-21T07:57:26;12.60;;;3.78;;
69305;SDS011;56427;51.580;4.656;2023-08-21T07:59:53;9.97;;;3.57;;
69305;SDS011;56427;51.580;4.656;2023-08-21T08:02:18;10.82;;;3.50;;
69305;SDS011;56427;51.580;4.656;2023-08-21T08:04:43;11.20;;;3.67;;
69305;SDS011;56427;51.580;4.656;2023-08-21T08:07:09;19.93;;;4.30;;
69305;SDS011;56427;51.580;4.656;2023-08-21T08:09:34;14.60;;;4.63;;
69305;SDS011;56427;51.580;4.656;2023-08-21T08:11:59;14.10;;;5.63;;
69305;SDS011;56427;51.580;4.656;2023-08-21T08:14:25;11.88;;;5.05;;
69305;SDS011;56427;51.580;4.656;2023-08-21T08:16:50;11.73;;;4.43;;
69305;SDS011;56427;51.580;4.656;2023-08-21T08:19:16;11.17;;;3.90;;
69305;SDS011;56427;51.580;4.656;2023-08-21T08:21:41;9.83;;;3.93;;
69305;SDS011;56427;51.580;4.656;2023-08-21T08:24:06;12.17;;;3.90;;
69305;SDS011;56427;51.580;4.656;2023-08-21T08:26:32;11.48;;;3.50;;
69305;SDS011;56427;51.580;4.656;2023-08-21T08:28:57;10.20;;;3.47;;
69305;SDS011;56427;51.580;4.656;2023-08-21T08:31:23;10.60;;;3.53;;
69305;SDS011;56427;51.580;4.656;2023-08-21T08:33:50;10.40;;;3.35;;
69305;SDS011;56427;51.580;4.656;2023-08-21T08:36:19;13.43;;;3.10;;
69305;SDS011;56427;51.580;4.656;2023-08-21T08:38:44;8.05;;;2.67;;
69305;SDS011;56427;51.580;4.656;2023-08-21T08:41:11;9.67;;;3.10;;
69305;SDS011;56427;51.580;4.656;2023-08-21T08:43:43;9.07;;;2.50;;
69305;SDS011;56427;51.580;4.656;2023-08-21T08:46:09;12.15;;;3.30;;
69305;SDS011;56427;51.580;4.656;2023-08-21T08:48:35;9.80;;;2.55;;
69305;SDS011;56427;51.580;4.656;2023-08-21T08:51:02;10.07;;;2.93;;
69305;SDS011;56427;51.580;4.656;2023-08-21T08:53:31;11.40;;;3.00;;
69305;SDS011;56427;51.580;4.656;2023-08-21T08:55:57;11.38;;;2.78;;
69305;SDS011;56427;51.580;4.656;2023-08-21T08:58:23;9.85;;;2.72;;
69305;SDS011;56427;51.580;4.656;2023-08-21T09:00:49;10.40;;;2.20;;
69305;SDS011;56427;51.580;4.656;2023-08-21T09:03:18;12.25;;;2.22;;
69305;SDS011;56427;51.580;4.656;2023-08-21T09:05:43;7.30;;;1.90;;
69305;SDS011;56427;51.580;4.656;2023-08-21T09:08:10;7.95;;;2.22;;
69305;SDS011;56427;51.580;4.656;2023-08-21T09:10:44;7.00;;;1.98;;
69305;SDS011;56427;51.580;4.656;2023-08-21T09:13:16;8.65;;;2.33;;
69305;SDS011;56427;51.580;4.656;2023-08-21T09:15:47;11.80;;;1.92;;
69305;SDS011;56427;51.580;4.656;2023-08-21T09:18:14;6.20;;;2.20;;
69305;SDS011;56427;51.580;4.656;2023-08-21T09:20:40;7.22;;;2.28;;
69305;SDS011;56427;51.580;4.656;2023-08-21T09:23:06;9.55;;;3.10;;
69305;SDS011;56427;51.580;4.656;2023-08-21T09:25:37;7.53;;;2.08;;
69305;SDS011;56427;51.580;4.656;2023-08-21T09:28:07;13.00;;;2.83;;
69305;SDS011;56427;51.580;4.656;2023-08-21T09:30:50;9.50;;;2.40;;
69305;SDS011;56427;51.580;4.656;2023-08-21T09:33:17;8.65;;;1.83;;
69305;SDS011;56427;51.580;4.656;2023-08-21T09:35:44;6.95;;;1.67;;
69305;SDS011;56427;51.580;4.656;2023-08-21T09:38:10;8.02;;;1.95;;
69305;SDS011;56427;51.580;4.656;2023-08-21T09:40:39;8.57;;;2.57;;
69305;SDS011;56427;51.580;4.656;2023-08-21T09:43:06;11.25;;;2.15;;
69305;SDS011;56427;51.580;4.656;2023-08-21T09:45:33;7.07;;;2.40;;
69305;SDS011;56427;51.580;4.656;2023-08-21T09:47:59;8.70;;;2.10;;
69305;SDS011;56427;51.580;4.656;2023-08-21T09:50:25;7.53;;;2.00;;
69305;SDS011;56427;51.580;4.656;2023-08-21T09:52:53;6.35;;;1.90;;
69305;SDS011;56427;51.580;4.656;2023-08-21T09:55:19;6.75;;;1.40;;
69305;SDS011;56427;51.580;4.656;2023-08-21T09:57:46;6.27;;;1.60;;
69305;SDS011;56427;51.580;4.656;2023-08-21T10:00:14;5.53;;;1.40;;
69305;SDS011;56427;51.580;4.656;2023-08-21T10:02:51;8.98;;;1.83;;
69305;SDS011;56427;51.580;4.656;2023-08-21T10:05:18;8.27;;;1.75;;
69305;SDS011;56427;51.580;4.656;2023-08-21T10:07:47;5.85;;;1.50;;
69305;SDS011;56427;51.580;4.656;2023-08-21T10:10:15;5.10;;;1.60;;
69305;SDS011;56427;51.580;4.656;2023-08-21T10:12:41;4.78;;;1.23;;
69305;SDS011;56427;51.580;4.656;2023-08-21T10:15:07;5.03;;;1.30;;
69305;SDS011;56427;51.580;4.656;2023-08-21T10:17:36;7.95;;;1.63;;
69305;SDS011;56427;51.580;4.656;2023-08-21T10:20:06;7.10;;;1.73;;
69305;SDS011;56427;51.580;4.656;2023-08-21T10:25:22;6.53;;;1.10;;
69305;SDS011;56427;51.580;4.656;2023-08-21T10:27:49;4.53;;;1.10;;
69305;SDS011;56427;51.580;4.656;2023-08-21T10:30:19;5.90;;;1.20;;
69305;SDS011;56427;51.580;4.656;2023-08-21T10:32:51;5.43;;;1.40;;
69305;SDS011;56427;51.580;4.656;2023-08-21T10:35:21;5.32;;;1.40;;
69305;SDS011;56427;51.580;4.656;2023-08-21T10:40:36;5.23;;;1.30;;
69305;SDS011;56427;51.580;4.656;2023-08-21T10:43:02;5.38;;;1.20;;
69305;SDS011;56427;51.580;4.656;2023-08-21T10:45:28;4.32;;;1.02;;
69305;SDS011;56427;51.580;4.656;2023-08-21T10:48:00;4.90;;;1.38;;
69305;SDS011;56427;51.580;4.656;2023-08-21T10:50:25;5.25;;;1.15;;
69305;SDS011;56427;51.580;4.656;2023-08-21T10:52:54;5.10;;;1.10;;
69305;SDS011;56427;51.580;4.656;2023-08-21T10:55:19;6.47;;;1.20;;
69305;SDS011;56427;51.580;4.656;2023-08-21T10:57:46;5.30;;;1.17;;
69305;SDS011;56427;51.580;4.656;2023-08-21T11:00:14;4.97;;;1.20;;
69305;SDS011;56427;51.580;4.656;2023-08-21T11:02:42;5.35;;;1.25;;
69305;SDS011;56427;51.580;4.656;2023-08-21T11:05:12;6.13;;;1.20;;
69305;SDS011;56427;51.580;4.656;2023-08-21T11:07:39;4.03;;;1.00;;
69305;SDS011;56427;51.580;4.656;2023-08-21T11:10:10;5.90;;;1.00;;
69305;SDS011;56427;51.580;4.656;2023-08-21T11:12:37;3.80;;;1.02;;
69305;SDS011;56427;51.580;4.656;2023-08-21T11:15:02;3.80;;;0.80;;
69305;SDS011;56427;51.580;4.656;2023-08-21T11:17:28;5.63;;;1.20;;
69305;SDS011;56427;51.580;4.656;2023-08-21T11:19:53;3.70;;;1.03;;
69305;SDS011;56427;51.580;4.656;2023-08-21T11:22:21;5.72;;;1.42;;
69305;SDS011;56427;51.580;4.656;2023-08-21T11:24:53;5.53;;;1.25;;
69305;SDS011;56427;51.580;4.656;2023-08-21T11:27:19;4.13;;;1.33;;
69305;SDS011;56427;51.580;4.656;2023-08-21T11:29:46;5.65;;;1.25;;
69305;SDS011;56427;51.580;4.656;2023-08-21T11:32:16;4.75;;;1.23;;
69305;SDS011;56427;51.580;4.656;2023-08-21T11:34:53;5.25;;;1.20;;
69305;SDS011;56427;51.580;4.656;2023-08-21T11:37:21;4.63;;;1.10;;
69305;SDS011;56427;51.580;4.656;2023-08-21T11:39:49;4.18;;;1.13;;
69305;SDS011;56427;51.580;4.656;2023-08-21T11:42:19;6.35;;;1.10;;
69305;SDS011;56427;51.580;4.656;2023-08-21T11:44:52;5.30;;;1.20;;
69305;SDS011;56427;51.580;4.656;2023-08-21T11:47:18;4.03;;;1.30;;
69305;SDS011;56427;51.580;4.656;2023-08-21T11:49:46;5.97;;;1.20;;
69305;SDS011;56427;51.580;4.656;2023-08-21T11:52:14;3.97;;;1.00;;
69305;SDS011;56427;51.580;4.656;2023-08-21T11:54:43;5.22;;;1.20;;
69305;SDS011;56427;51.580;4.656;2023-08-21T11:57:13;3.55;;;1.13;;
69305;SDS011;56427;51.580;4.656;2023-08-21T11:59:40;6.03;;;1.50;;
69305;SDS011;56427;51.580;4.656;2023-08-21T12:02:09;6.60;;;1.57;;
69305;SDS011;56427;51.580;4.656;2023-08-21T12:04:38;6.93;;;1.67;;
69305;SDS011;56427;51.580;4.656;2023-08-21T12:07:04;4.30;;;1.23;;
69305;SDS011;56427;51.580;4.656;2023-08-21T12:09:29;4.78;;;1.10;;
69305;SDS011;56427;51.580;4.656;2023-08-21T12:11:55;3.17;;;1.00;;
69305;SDS011;56427;51.580;4.656;2023-08-21T12:14:20;5.87;;;1.17;;
69305;SDS011;56427;51.580;4.656;2023-08-21T12:16:46;7.37;;;1.33;;
69305;SDS011;56427;51.580;4.656;2023-08-21T12:19:11;4.43;;;1.00;;
69305;SDS011;56427;51.580;4.656;2023-08-21T12:21:37;4.47;;;1.07;;
69305;SDS011;56427;51.580;4.656;2023-08-21T12:24:03;4.97;;;1.10;;
69305;SDS011;56427;51.580;4.656;2023-08-21T12:26:30;4.93;;;1.30;;
69305;SDS011;56427;51.580;4.656;2023-08-21T12:28:55;5.83;;;1.30;;
69305;SDS011;56427;51.580;4.656;2023-08-21T12:31:21;7.27;;;1.53;;
69305;SDS011;56427;51.580;4.656;2023-08-21T12:33:46;5.70;;;1.10;;
69305;SDS011;56427;51.580;4.656;2023-08-21T12:36:12;5.03;;;1.10;;
69305;SDS011;56427;51.580;4.656;2023-08-21T12:38:37;3.80;;;1.10;;
69305;SDS011;56427;51.580;4.656;2023-08-21T12:41:02;4.73;;;1.10;;
69305;SDS011;56427;51.580;4.656;2023-08-21T12:43:33;5.67;;;1.30;;
69305;SDS011;56427;51.580;4.656;2023-08-21T12:45:59;4.90;;;1.20;;
69305;SDS011;56427;51.580;4.656;2023-08-21T12:48:24;5.83;;;1.20;;
69305;SDS011;56427;51.580;4.656;2023-08-21T12:50:49;4.60;;;1.10;;
69305;SDS011;56427;51.580;4.656;2023-08-21T12:53:15;6.80;;;1.55;;
69305;SDS011;56427;51.580;4.656;2023-08-21T12:55:41;4.97;;;1.60;;
69305;SDS011;56427;51.580;4.656;2023-08-21T12:58:08;4.85;;;1.20;;
69305;SDS011;56427;51.580;4.656;2023-08-21T13:00:33;5.50;;;1.50;;
69305;SDS011;56427;51.580;4.656;2023-08-21T13:02:59;5.90;;;1.35;;
69305;SDS011;56427;51.580;4.656;2023-08-21T13:05:24;4.80;;;1.10;;
69305;SDS011;56427;51.580;4.656;2023-08-21T13:07:50;3.90;;;1.33;;
69305;SDS011;56427;51.580;4.656;2023-08-21T13:10:15;4.50;;;1.20;;
69305;SDS011;56427;51.580;4.656;2023-08-21T13:12:40;5.70;;;1.50;;
69305;SDS011;56427;51.580;4.656;2023-08-21T13:15:06;4.53;;;1.30;;
69305;SDS011;56427;51.580;4.656;2023-08-21T13:17:34;4.50;;;1.23;;
69305;SDS011;56427;51.580;4.656;2023-08-21T13:20:00;6.27;;;1.57;;
69305;SDS011;56427;51.580;4.656;2023-08-21T13:22:25;4.43;;;1.13;;
69305;SDS011;56427;51.580;4.656;2023-08-21T13:24:51;6.60;;;1.40;;
69305;SDS011;56427;51.580;4.656;2023-08-21T13:27:16;5.70;;;1.50;;
69305;SDS011;56427;51.580;4.656;2023-08-21T13:29:42;4.57;;;1.40;;
69305;SDS011;56427;51.580;4.656;2023-08-21T13:32:07;4.30;;;1.25;;
69305;SDS011;56427;51.580;4.656;2023-08-21T13:34:33;4.80;;;1.13;;
69305;SDS011;56427;51.580;4.656;2023-08-21T13:36:58;4.73;;;1.00;;
69305;SDS011;56427;51.580;4.656;2023-08-21T13:39:23;5.47;;;1.10;;
69305;SDS011;56427;51.580;4.656;2023-08-21T13:41:51;5.45;;;1.30;;
69305;SDS011;56427;51.580;4.656;2023-08-21T13:44:16;5.53;;;1.40;;
69305;SDS011;56427;51.580;4.656;2023-08-21T13:46:42;5.87;;;1.60;;
69305;SDS011;56427;51.580;4.656;2023-08-21T13:49:07;6.60;;;1.40;;
69305;SDS011;56427;51.580;4.656;2023-08-21T13:51:34;7.57;;;1.95;;
69305;SDS011;56427;51.580;4.656;2023-08-21T13:53:59;4.57;;;1.37;;
69305;SDS011;56427;51.580;4.656;2023-08-21T13:56:25;4.70;;;1.47;;
69305;SDS011;56427;51.580;4.656;2023-08-21T13:58:50;7.60;;;1.40;;
69305;SDS011;56427;51.580;4.656;2023-08-21T14:01:15;5.40;;;1.60;;
69305;SDS011;56427;51.580;4.656;2023-08-21T14:03:41;5.70;;;1.70;;
69305;SDS011;56427;51.580;4.656;2023-08-21T14:06:09;10.48;;;1.90;;
69305;SDS011;56427;51.580;4.656;2023-08-21T14:08:36;6.25;;;1.80;;
69305;SDS011;56427;51.580;4.656;2023-08-21T14:11:02;6.17;;;1.90;;
69305;SDS011;56427;51.580;4.656;2023-08-21T14:13:28;7.10;;;2.00;;
69305;SDS011;56427;51.580;4.656;2023-08-21T14:15:53;8.67;;;1.70;;
69305;SDS011;56427;51.580;4.656;2023-08-21T14:18:19;5.37;;;1.60;;
69305;SDS011;56427;51.580;4.656;2023-08-21T14:20:44;6.15;;;2.47;;
69305;SDS011;56427;51.580;4.656;2023-08-21T14:23:09;7.53;;;2.33;;
69305;SDS011;56427;51.580;4.656;2023-08-21T14:25:35;7.13;;;2.27;;
69305;SDS011;56427;51.580;4.656;2023-08-21T14:28:02;6.55;;;1.77;;
69305;SDS011;56427;51.580;4.656;2023-08-21T14:30:27;6.30;;;2.20;;
69305;SDS011;56427;51.580;4.656;2023-08-21T14:32:53;7.85;;;2.13;;
69305;SDS011;56427;51.580;4.656;2023-08-21T14:35:18;5.20;;;2.10;;
69305;SDS011;56427;51.580;4.656;2023-08-21T14:37:44;5.90;;;1.77;;
69305;SDS011;56427;51.580;4.656;2023-08-21T14:40:09;7.90;;;2.03;;
69305;SDS011;56427;51.580;4.656;2023-08-21T14:42:36;8.77;;;2.33;;
69305;SDS011;56427;51.580;4.656;2023-08-21T14:45:02;7.22;;;2.38;;
69305;SDS011;56427;51.580;4.656;2023-08-21T14:47:28;7.78;;;2.20;;